Terminal Aerodrome Forecast
Issued by NWS

Home | Current Version | Previous Version | Text Only | Print | Product List | Glossary On
Versions: 1 2 3 4 5 6 7 8 9 10 11 12 13 14 15
544
FTUS43 KICT 030457 AAA
TAFSLN
TAF AMD
KSLN 030457Z 0305/0324 30023G31KT 5SM -SN OVC015
      TEMPO 0305/0307 2SM -SN
     FM030900 32019G27KT P6SM OVC025
     FM031500 32015G23KT P6SM SCT035 SCT100
     FM032200 31011KT P6SM SCT250=

USA.gov is the U.S. government's official web portal to all federal, state and local government web resources and services.